Latest Weather Observations for Meekatharra

IDW60801

Issued at 7:03 am WST Wednesday 18 September 2019 (issued every 10 minutes, with the page automatically refreshed every 10 minutes)

About weather observations | Map of weather stations | Latest weather observations for WA | Other Formats
Station Details ID: 007045 Name: MEEKATHARRA AIRPORT Lat: -26.61 Lon: 118.54 Height: 517.0 m
Data from the previous 72 hours. | See also: Recent months at Meekatharra
Date/Time
WST
Temp
°C
App
Temp
°C
Dew
Point
°C
Rel
Hum
%
Delta-T
°C
Wind Press
QNH
hPa
Press
MSL
hPa
Rain since
9am
mm
Dir  Spd
km/h
Gust
km/h
Spd
kts
Gust
kts
18/07:00am 16.0 13.3 3.8 44 5.8 S 7 11 4 6 1018.9 1017.2 0.0
18/06:30am 13.9 10.3 0.9 41 5.7 S 9 13 5 7 1018.4 1016.8 0.0
18/06:00am 13.4 8.9 -0.6 38 5.9 S 13 15 7 8 1018.3 1016.7 0.0
18/05:30am 13.9 9.3 -0.9 36 6.3 SSW 13 15 7 8 1018.4 1016.8 0.0
18/05:00am 14.1 9.4 -1.9 33 6.6 SSW 13 15 7 8 1018.3 1016.7 0.0
18/04:30am 14.9 10.2 -2.1 31 7.1 S 13 15 7 8 1018.2 1016.6 0.0
18/04:00am 15.4 10.6 -2.5 29 7.4 SSW 13 15 7 8 1018.0 1016.4 0.0
18/03:30am 15.6 10.7 -3.8 26 7.8 S 13 15 7 8 1017.9 1016.3 0.0
18/03:00am 15.9 11.2 -5.2 23 8.3 S 11 13 6 7 1018.0 1016.4 0.0
18/02:30am 16.4 11.7 -5.3 22 8.5 SSW 11 13 6 7 1018.0 1016.4 0.0
18/02:00am 17.7 12.6 -5.5 20 9.2 SSW 13 15 7 8 1018.1 1016.5 0.0
18/01:30am 18.3 13.6 -5.0 20 9.4 SSW 11 13 6 7 1018.3 1016.7 0.0
18/01:00am 18.5 14.1 -5.5 19 9.6 SW 9 9 5 5 1018.4 1016.8 0.0
18/12:30am 19.6 14.9 -5.3 18 10.1 SW 11 13 6 7 1018.6 1016.9 0.0
18/12:00am 20.2 15.1 -4.8 18 10.3 SW 13 17 7 9 1018.4 1016.8 0.0
 
Date/Time
WST
Temp
°C
App
Temp
°C
Dew
Point
°C
Rel
Hum
%
Delta-T
°C
Wind Press
QNH
hPa
Press
MSL
hPa
Rain since
9am
mm
Dir  Spd
km/h
Gust
km/h
Spd
kts
Gust
kts
17/11:30pm 19.3 15.0 -4.9 19 9.9 SSW 9 11 5 6 1018.6 1016.9 0.0
17/11:00pm 21.2 16.6 -4.0 18 10.7 SW 11 13 6 7 1018.7 1017.0 0.0
17/10:30pm 22.2 17.6 -4.0 17 11.2 SW 11 15 6 8 1018.8 1017.1 0.0
17/10:00pm 23.4 18.5 -3.8 16 11.8 SW 13 19 7 10 1019.0 1017.3 0.0
17/09:30pm 24.4 19.1 -3.9 15 12.4 WSW 15 20 8 11 1019.1 1017.4 0.0
17/09:00pm 24.8 20.3 -3.6 15 12.5 WSW 11 17 6 9 1019.1 1017.4 0.0
17/08:30pm 25.1 20.4 -5.2 13 13.0 WSW 11 15 6 8 1018.9 1017.2 0.0
17/08:00pm 26.1 20.6 -5.5 12 13.6 W 15 20 8 11 1018.6 1016.9 0.0
17/07:30pm 26.8 21.2 -6.1 11 14.1 W 15 20 8 11 1018.2 1016.6 0.0
17/07:00pm 27.4 21.8 -6.9 10 14.5 W 15 20 8 11 1017.8 1016.2 0.0
17/06:30pm 28.3 21.6 -7.6 9 15.2 W 20 30 11 16 1017.3 1015.6 0.0
17/06:00pm 29.0 22.0 -7.0 9 15.5 W 22 39 12 21 1016.9 1015.2 0.0
17/05:30pm 30.1 23.1 -7.7 8 16.2 W 22 35 12 19 1016.6 1014.9 0.0
17/05:00pm 31.0 24.2 -8.8 7 16.9 W 20 35 11 19 1016.2 1014.6 0.0
17/04:30pm 32.0 25.3 -10.0 6 17.6 W 19 30 10 16 1016.0 1014.4 0.0
17/04:00pm 31.8 24.2 -10.2 6 17.5 W 24 33 13 18 1015.7 1014.0 0.0
17/03:30pm 32.8 25.2 -9.4 6 18.0 WNW 24 35 13 19 1015.5 1013.8 0.0
17/03:00pm 32.5 25.3 -9.7 6 17.9 W 22 35 12 19 1015.4 1013.7 0.0
17/02:30pm 32.5 25.1 -7.7 7 17.6 WSW 24 35 13 19 1015.4 1013.7 0.0
17/02:00pm 33.2 26.7 -5.5 8 17.7 WNW 20 37 11 20 1015.6 1013.9 0.0
17/01:30pm 31.8 24.6 -4.9 9 16.7 WNW 24 37 13 20 1016.0 1014.4 0.0
17/01:00pm 31.9 25.5 -6.4 8 17.0 WNW 19 35 10 19 1016.3 1014.7 0.0
17/12:30pm 31.5 25.5 -6.7 8 16.9 WSW 17 28 9 15 1016.7 1015.0 0.0
17/12:00pm 32.4 26.9 -1.8 11 16.5 WSW 17 26 9 14 1016.9 1015.2 0.0
17/11:30am 31.0 25.9 -1.7 12 15.7 W 15 26 8 14 1017.2 1015.5 0.0
17/11:00am 30.6 25.6 -0.9 13 15.2 WSW 15 22 8 12 1017.6 1015.9 0.0
17/10:30am 28.3 23.2 0.9 17 13.5 WSW 17 24 9 13 1017.8 1016.2 0.0
17/10:00am 27.1 22.8 0.8 18 12.8 SSW 13 19 7 10 1017.9 1016.3 0.0
17/09:30am 24.9 21.9 1.7 22 11.3 SW 7 15 4 8 1018.0 1016.4 0.0
17/09:00am 22.7 19.5 2.8 27 9.7 SW 9 13 5 7 1018.0 1016.4 0.0
17/08:30am 20.8 17.6 3.1 31 8.6 SW 9 13 5 7 1017.9 1016.3 0.0
17/08:00am 19.5 15.6 3.2 34 7.8 SSW 13 20 7 11 1017.8 1016.2 0.0
17/07:30am 18.1 14.1 2.8 36 7.2 SSW 13 17 7 9 1017.6 1015.9 0.0
17/07:00am 16.2 11.7 2.2 39 6.4 SW 15 19 8 10 1017.3 1015.6 0.0
17/06:30am 14.6 11.8 1.8 42 5.8 S 6 7 3 4 1016.5 1014.8 0.0
17/06:00am 13.7 10.2 1.0 42 5.6 S 9 9 5 5 1016.1 1014.5 0.0
17/05:30am 14.4 10.9 1.3 41 5.8 S 9 11 5 6 1015.8 1014.1 0.0
17/05:00am 14.9 11.0 1.4 40 6.0 S 11 11 6 6 1015.6 1013.9 0.0
17/04:30am 15.9 12.5 1.6 38 6.5 SSW 9 11 5 6 1015.5 1013.8 0.0
17/04:00am 16.3 12.5 1.6 37 6.7 S 11 13 6 7 1015.3 1013.6 0.0
17/03:30am 16.9 13.5 1.8 36 6.9 S 9 11 5 6 1015.2 1013.5 0.0
17/03:00am 17.6 14.2 1.6 34 7.4 SSE 9 11 5 6 1015.1 1013.4 0.0
17/02:30am 18.5 14.7 1.5 32 7.9 SSE 11 13 6 7 1015.2 1013.5 0.0
17/02:00am 19.4 16.0 1.9 31 8.2 SSE 9 11 5 6 1015.3 1013.6 0.0
17/01:30am 20.5 17.1 1.9 29 8.8 ESE 9 11 5 6 1015.4 1013.7 0.0
17/01:00am 21.2 17.8 2.0 28 9.2 ESE 9 13 5 7 1015.5 1013.8 0.0
17/12:30am 21.6 18.2 1.8 27 9.4 SE 9 13 5 7 1015.6 1013.9 0.0
17/12:00am 22.8 18.3 2.3 26 9.9 ESE 15 20 8 11 1015.6 1013.9 0.0
 
Date/Time
WST
Temp
°C
App
Temp
°C
Dew
Point
°C
Rel
Hum
%
Delta-T
°C
Wind Press
QNH
hPa
Press
MSL
hPa
Rain since
9am
mm
Dir  Spd
km/h
Gust
km/h
Spd
kts
Gust
kts
16/11:30pm 23.4 18.5 2.3 25 10.3 ESE 17 24 9 13 1015.8 1014.1 0.0
16/11:00pm 24.0 18.8 2.2 24 10.6 ESE 19 24 10 13 1016.0 1014.4 0.0
16/10:30pm 24.4 18.5 1.9 23 11.0 ESE 22 33 12 18 1016.3 1014.7 0.0
16/10:00pm 24.6 19.1 2.1 23 11.0 E 20 30 11 16 1016.6 1014.9 0.0
16/09:30pm 25.2 19.9 2.0 22 11.4 ESE 19 24 10 13 1016.8 1015.1 0.0
16/09:00pm 25.9 20.4 1.9 21 11.8 ESE 20 26 11 14 1017.0 1015.3 0.0
16/08:30pm 26.6 21.0 1.1 19 12.4 ESE 20 26 11 14 1016.9 1015.2 0.0
16/08:00pm 27.2 21.9 -0.8 16 13.2 ESE 17 24 9 13 1016.6 1014.9 0.0
16/07:30pm 27.8 22.3 -2.1 14 13.9 SE 17 20 9 11 1016.3 1014.7 0.0
16/07:00pm 28.1 23.3 -2.9 13 14.2 S 13 19 7 10 1016.1 1014.5 0.0
16/06:30pm 29.3 23.5 -4.2 11 15.2 S 17 24 9 13 1015.8 1014.1 0.0
16/06:00pm 30.4 25.5 -3.3 11 15.6 S 13 17 7 9 1015.5 1013.8 0.0
16/05:30pm 31.4 25.3 -3.8 10 16.3 SSE 19 28 10 15 1015.3 1013.6 0.0
16/05:00pm 32.2 26.4 -4.6 9 16.9 SSW 17 28 9 15 1015.3 1013.6 0.0
16/04:30pm 33.4 28.9 -14.1 4 18.9 NE 6 11 3 6 1015.3 1013.6 0.0
16/04:00pm 33.6 28.6 -13.9 4 18.9 NNW 9 26 5 14 1015.4 1013.7 0.0
16/03:30pm 33.9 28.1 -13.7 4 19.1 N 13 20 7 11 1015.5 1013.8 0.0
16/03:00pm 33.2 28.3 -11.5 5 18.5 S 9 15 5 8 1015.5 1013.8 0.0
16/02:30pm 33.9 28.7 -11.0 5 18.8 WNW 11 20 6 11 1015.7 1014.0 0.0
16/02:00pm 33.1 28.0 -9.2 6 18.1 ENE 11 19 6 10 1016.0 1014.4 0.0
16/01:30pm 33.1 27.6 -9.2 6 18.1 E 13 19 7 10 1016.3 1014.7 0.0
16/01:00pm 32.1 28.0 -6.3 8 17.1 S 7 13 4 7 1016.8 1015.1 0.0
16/12:30pm 32.0 28.3 -4.8 9 16.8 SE 6 13 3 7 1017.3 1015.6 0.0
16/12:00pm 30.9 26.6 1.3 15 14.9 SE 13 28 7 15 1017.8 1016.2 0.0
16/11:30am 29.7 25.0 1.2 16 14.2 ESE 15 24 8 13 1018.3 1016.7 0.0
16/11:00am 29.3 24.6 0.9 16 14.0 SE 15 24 8 13 1018.8 1017.1 0.0
16/10:30am 27.4 23.0 2.5 20 12.5 SE 15 20 8 11 1019.0 1017.3 0.0
16/10:00am 27.0 22.6 2.8 21 12.2 ESE 15 22 8 12 1019.3 1017.6 0.0
16/09:30am 25.5 20.9 3.5 24 11.1 E 17 26 9 14 1019.4 1017.8 0.0
16/09:00am 24.7 20.1 3.9 26 10.5 E 17 26 9 14 1019.4 1017.8 0.0
16/08:30am 22.8 17.5 4.8 31 9.2 ESE 22 30 12 16 1019.3 1017.6 0.0
16/08:00am 21.4 16.2 5.3 35 8.2 ESE 22 32 12 17 1019.2 1017.5 0.0
16/07:30am 20.2 14.9 6.9 42 6.9 ESE 24 33 13 18 1019.3 1017.6 0.0
16/07:00am 19.3 15.5 7.4 46 6.2 SE 17 26 9 14 1018.9 1017.2 0.0
16/06:30am 18.6 14.8 7.4 48 5.8 SE 17 26 9 14 1018.3 1016.7 0.0
16/06:00am 18.2 14.3 7.3 49 5.6 SE 17 24 9 13 1018.0 1016.4 0.0
16/05:30am 18.4 14.8 6.9 47 5.9 SE 15 20 8 11 1017.9 1016.3 0.0
16/05:00am 18.3 15.3 5.8 44 6.3 SE 11 17 6 9 1017.9 1016.3 0.0
16/04:30am 18.6 15.1 5.5 42 6.6 SE 13 20 7 11 1017.6 1015.9 0.0
16/04:00am 19.1 15.0 4.5 38 7.2 SE 15 19 8 10 1017.4 1015.7 0.0
16/03:30am 19.8 15.7 4.3 36 7.7 SE 15 20 8 11 1017.5 1015.8 0.0
16/03:00am 20.5 16.0 4.1 34 8.1 SSE 17 24 9 13 1017.5 1015.8 0.0
16/02:30am 20.8 16.3 4.0 33 8.3 SSE 17 24 9 13 1017.7 1016.1 0.0
16/02:00am 20.9 16.3 3.6 32 8.5 SSE 17 22 9 12 1017.8 1016.2 0.0
16/01:30am 21.5 16.4 3.2 30 8.9 S 19 24 10 13 1018.1 1016.5 0.0
16/01:00am 22.0 16.7 3.2 29 9.2 S 20 26 11 14 1018.1 1016.5 0.0
16/12:30am 22.2 17.4 2.8 28 9.5 S 17 20 9 11 1018.2 1016.6 0.0
16/12:00am 22.6 17.7 2.1 26 9.9 S 17 20 9 11 1018.2 1016.6 0.0
 
Date/Time
WST
Temp
°C
App
Temp
°C
Dew
Point
°C
Rel
Hum
%
Delta-T
°C
Wind Press
QNH
hPa
Press
MSL
hPa
Rain since
9am
mm
Dir  Spd
km/h
Gust
km/h
Spd
kts
Gust
kts
15/11:30pm 22.9 18.3 1.3 24 10.3 S 15 19 8 10 1018.3 1016.7 0.0
15/11:00pm 23.3 18.1 0.4 22 10.7 S 17 22 9 12 1018.2 1016.6 0.0
15/10:30pm 23.0 17.6 -4.1 16 11.7 SSW 15 20 8 11 1018.6 1016.9 0.0
15/10:00pm 22.0 16.5 -15.3 7 12.8 WSW 11 22 6 12 1018.4 1016.8 0.0
15/09:30pm 20.7 15.9 -16.3 7 12.3 W 7 9 4 5 1018.3 1016.7 0.0
15/09:00pm 23.6 18.5 -16.0 6 13.7 W 9 9 5 5 1018.4 1016.8 0.0
15/08:30pm 22.1 17.3 -17.1 6 13.0 W 7 7 4 4 1018.6 1016.9 0.0
15/08:00pm 23.4 18.6 -16.2 6 13.6 W 7 9 4 5 1018.6 1016.9 0.0
15/07:30pm 24.7 19.6 -15.2 6 14.2 WSW 9 11 5 6 1018.6 1016.9 0.0
15/07:00pm 27.3 22.2 -15.6 5 15.6 W 9 11 5 6 1018.3 1016.7 0.0
15/06:30pm 28.9 23.3 -17.1 4 16.6 W 11 11 6 6 1018.1 1016.5 0.0
15/06:00pm 30.3 25.4 -19.6 3 17.5 WNW 7 11 4 6 1017.9 1016.3 0.0
15/05:30pm 31.9 26.7 -18.5 3 18.4 NW 9 13 5 7 1017.8 1016.2 0.0
15/05:00pm 32.8 27.6 -17.9 3 18.8 NW 9 17 5 9 1017.7 1016.1 0.0
15/04:30pm 33.2 27.2 -17.6 3 19.0 NW 13 24 7 13 1017.6 1015.9 0.0
15/04:00pm 32.7 26.7 -18.0 3 18.8 N 13 20 7 11 1017.5 1015.8 0.0
15/03:30pm 33.4 28.2 -17.5 3 19.1 SW 9 17 5 9 1017.4 1015.7 0.0
15/03:00pm 32.8 28.0 -17.9 3 18.8 WNW 7 13 4 7 1017.5 1015.8 0.0
15/02:30pm 32.8 27.2 -17.9 3 18.8 WNW 11 17 6 9 1017.7 1016.1 0.0
15/02:00pm 33.1 27.5 -17.7 3 19.0 WNW 11 20 6 11 1017.9 1016.3 0.0
15/01:30pm 32.8 27.8 -22.6 2 19.1 WSW 7 17 4 9 1018.2 1016.6 0.0
15/01:00pm 32.1 26.3 -14.9 4 18.2 WSW 13 20 7 11 1018.7 1017.0 0.0
15/12:30pm 32.5 26.7 -14.7 4 18.4 WNW 13 30 7 16 1019.1 1017.4 0.0
15/12:00pm 32.1 25.9 -14.9 4 18.1 NW 15 22 8 12 1019.6 1018.0 0.0
15/11:30am 31.9 26.1 -15.1 4 18.1 NNW 13 22 7 12 1019.8 1018.2 0.0
15/11:00am 30.4 25.8 -13.4 5 17.0 N 7 11 4 6 1020.1 1018.5 0.0
15/10:30am 30.0 25.5 -11.4 6 16.6 E 7 11 4 6 1020.3 1018.7 0.0
15/10:00am 27.7 23.7 -8.0 9 14.9 SE 6 11 3 6 1020.7 1019.0 0.0
15/09:30am 25.8 21.4 -5.7 12 13.5 ESE 9 11 5 6 1020.9 1019.2 0.0
15/09:00am 24.1 19.9 -0.9 19 11.5 SE 11 15 6 8 1021.0 1019.3 0.0
15/08:30am 22.6 17.5 1.0 24 10.2 SSE 17 20 9 11 1021.1 1019.5 0.0
15/08:00am 21.2 16.1 1.0 26 9.4 SSE 17 24 9 13 1021.2 1019.6 0.0
15/07:30am 19.5 14.5 -1.0 25 9.1 SSE 15 19 8 10 1021.0 1019.3 0.0

Other formats

Comma delimited format used in spreadsheet applications
http://www.bom.gov.au/fwo/IDW60801/IDW60801.94430.axf

JavaScript Object Notation format (JSON) in row-major order
http://www.bom.gov.au/fwo/IDW60801/IDW60801.94430.json

Data quality

Most of these data are generated automatically and are frequently updated. Quality checks on data are not normally performed. It is possible for incorrect values to appear. Refer to information at About Latest Weather Observations and please check the disclaimer before using these data.